LFRC 301030Z AUTO 06008KT 030V100 CAVOK 19/10 Q1021

ElémentsDécodage
LFRC Station météo située sur l'aérodrome de CHERBOURG Maupertus
301030Z émis le 30 du mois à 10h30 UTC
AUTO Bulletin édité par un automate
06008KT vent du 060°, 08 noeuds
030V100 vent de direction variable entre 030° et 100°
CAVOK Ceiling And Visibility OK
- Visibilité de 10 Km ou plus
- Pas de nuage au-dessous de 1500m ou au-dessous de l'altitude minimale du secteur la plus élevée (si>1500m) et absence de CB
- pas de temps présent significatif
19/10 température 19°C, point de rosée 10°C
 soit une humidité relative de 56%
Q1021 la pression au niveau de la mer (QNH) est de 1021 hPa